Canoga, New York
Current Conditions -  °F | °C
As of 4:53 PM on Sunday 25 Jan 2015 (Local Time) from KPEO Reporting Station
Clear Clear  
Wind Chill: 11°   Ceiling: Unl
Heat Index: 18°   Visibility: 10mi
Dew Point:   Wind: 5mph
Humidity: 62%   Direction: 350°N
Pressure: 29.93"   Gusts: NA
Location:  42.9691°N, 76.7961°W
Report Text: KPEO 252153Z AUTO 35004KT 10SM CLR M08/M14 A2993 RMK AO2 SLP149 T10781139
Loading
Personal Weather Stations






























Interactive Weather Map New forecast layout! Learn more

10-Day Weather Forecast

Advertisements
Track Severe Weather on mobile